Time;durP1;ratioP1;P1;durP2;ratioP2;P2;SDS_P1;SDS_P2;PMS_P1;PMS_P2;Temp;Humidity;BMP_temperature;BMP_pressure;BME280_temperature;BME280_humidity;BME280_pressure;Samples;Min_cycle;Max_cycle;Signal;HPM_P1;HPM_P2
2022/11/04 00:01:54;;;;;;;0.08;0.08;;;;;;;12.75;73.97;100129.75;5055546;28;20025;-80
2022/11/04 00:04:23;;;;;;;0.08;0.08;;;;;;;12.76;74.26;100128.81;5071040;28;20028;-80
2022/11/04 00:06:50;;;;;;;0.10;0.10;;;;;;;12.73;73.83;100136.91;5080123;28;20594;-80
2022/11/04 00:09:20;;;;;;;0.10;0.10;;;;;;;12.71;74.03;100134.31;5075803;28;20028;-79
2022/11/04 00:14:33;;;;;;;0.10;0.10;;;;;;;12.71;74.02;100142.28;5079229;28;20108;-80
2022/11/04 00:17:30;;;;;;;0.05;0.05;;;;;;;12.71;74.26;100154.69;5076647;28;20112;-80
2022/11/04 00:28:53;;;;;;;0.10;0.10;;;;;;;12.74;74.31;100159.91;5078713;28;20044;-80
2022/11/04 00:33:56;;;;;;;0.10;0.10;;;;;;;12.62;74.69;100169.22;5074401;28;20078;-80
2022/11/04 00:36:24;;;;;;;0.10;0.10;;;;;;;12.57;74.71;100176.50;5069053;28;20039;-81
2022/11/04 00:38:50;;;;;;;0.10;0.10;;;;;;;12.57;74.37;100180.06;5076997;28;20027;-81
2022/11/04 00:41:31;;;;;;;0.10;0.10;;;;;;;12.56;74.30;100183.63;5076530;28;20448;-81
2022/11/04 00:43:59;;;;;;;0.10;0.10;;;;;;;12.59;74.21;100183.50;5072531;28;20112;-80
2022/11/04 00:46:27;;;;;;;0.10;0.10;;;;;;;12.65;74.12;100184.19;5070580;28;20020;-81
2022/11/04 00:48:54;;;;;;;0.20;0.20;;;;;;;12.65;74.83;100197.47;5073438;28;20038;-81
2022/11/04 00:51:21;;;;;;;0.10;0.10;;;;;;;12.67;74.61;100203.59;5073669;28;20504;-80
2022/11/04 00:53:47;;;;;;;0.10;0.10;;;;;;;12.60;74.71;100208.31;5074358;28;20012;-80
2022/11/04 00:56:14;;;;;;;0.00;0.00;;;;;;;12.60;74.35;100209.16;5075951;28;20031;-80
2022/11/04 00:58:40;;;;;;;0.10;0.10;;;;;;;12.49;74.04;100208.69;5070733;28;20037;-80
2022/11/04 01:01:11;;;;;;;0.10;0.10;;;;;;;12.35;73.00;100208.34;5073285;28;20036;-80
2022/11/04 01:03:38;;;;;;;0.10;0.10;;;;;;;12.15;72.09;100223.25;5072929;28;20047;-80
2022/11/04 01:06:05;;;;;;;0.10;0.10;;;;;;;12.09;72.61;100232.28;5074255;28;20020;-80
2022/11/04 01:08:31;;;;;;;0.10;0.10;;;;;;;12.00;73.23;100229.09;5075473;28;20040;-80
2022/11/04 01:11:02;;;;;;;0.10;0.10;;;;;;;12.03;73.25;100224.56;5074355;28;20020;-80
2022/11/04 01:13:28;;;;;;;0.10;0.10;;;;;;;12.07;73.52;100236.78;5074399;28;20021;-80
2022/11/04 01:15:56;;;;;;;0.10;0.10;;;;;;;12.04;73.70;100233.41;5072196;28;20550;-80
2022/11/04 01:18:22;;;;;;;0.10;0.10;;;;;;;12.04;74.29;100242.22;5071128;28;20400;-80
2022/11/04 01:20:49;;;;;;;0.10;0.10;;;;;;;12.05;74.19;100243.97;5075435;28;20031;-80
2022/11/04 01:23:15;;;;;;;0.00;0.00;;;;;;;12.08;73.48;100242.97;5073505;28;20093;-80
2022/11/04 01:25:42;;;;;;;0.10;0.10;;;;;;;12.07;73.86;100250.06;5074088;28;20032;-80
2022/11/04 01:28:08;;;;;;;0.10;0.10;;;;;;;12.00;74.15;100253.00;5074724;28;20111;-80
2022/11/04 01:30:36;;;;;;;0.10;0.10;;;;;;;12.03;74.35;100255.56;5074394;28;20028;-80
2022/11/04 01:33:02;;;;;;;0.10;0.10;;;;;;;12.04;73.92;100257.31;5073845;28;20441;-80
2022/11/04 01:35:29;;;;;;;0.15;0.15;;;;;;;12.06;74.09;100260.75;5071818;28;20025;-80
2022/11/04 01:37:56;;;;;;;0.10;0.10;;;;;;;12.08;74.22;100257.13;5073728;28;20024;-80
2022/11/04 01:40:22;;;;;;;0.10;0.10;;;;;;;12.11;74.03;100261.44;5072258;28;20032;-80
2022/11/04 01:42:48;;;;;;;0.10;0.10;;;;;;;12.07;74.37;100278.41;5074013;28;20049;-80
2022/11/04 01:45:18;;;;;;;0.10;0.10;;;;;;;12.09;74.32;100276.59;5074778;28;20033;-80
2022/11/04 01:47:57;;;;;;;0.10;0.10;;;;;;;12.11;74.49;100290.66;5072014;28;20033;-80
2022/11/04 01:50:28;;;;;;;0.10;0.10;;;;;;;12.11;74.36;100290.66;5072713;28;20450;-80
2022/11/04 01:53:07;;;;;;;0.10;0.10;;;;;;;12.10;74.07;100283.59;5075917;28;20137;-80
2022/11/04 01:55:36;;;;;;;0.10;0.10;;;;;;;12.11;74.15;100288.88;5073643;28;20524;-80
2022/11/04 01:58:10;;;;;;;0.10;0.10;;;;;;;12.18;74.47;100294.84;5073305;28;20082;-80
2022/11/04 02:00:39;;;;;;;0.10;0.10;;;;;;;12.18;74.11;100286.88;5074755;28;20116;-80
2022/11/04 02:03:09;;;;;;;0.10;0.10;;;;;;;12.15;74.12;100297.63;5073188;28;20042;-79
2022/11/04 02:05:37;;;;;;;0.00;0.00;;;;;;;12.09;73.79;100301.34;5073794;28;20476;-80
2022/11/04 02:08:06;;;;;;;0.10;0.10;;;;;;;12.10;74.20;100295.13;5073029;28;20507;-80
2022/11/04 02:10:33;;;;;;;0.08;0.08;;;;;;;12.07;74.26;100299.66;5073350;28;20028;-80
2022/11/04 02:13:01;;;;;;;0.10;0.10;;;;;;;12.05;74.48;100306.81;5078847;28;20066;-80
2022/11/04 02:18:20;;;;;;;0.10;0.10;;;;;;;11.97;73.79;100305.31;5103002;27;20395;-80
2022/11/04 02:26:41;;;;;;;0.10;0.10;;;;;;;11.76;73.69;100300.69;5052155;28;20407;-80
2022/11/04 02:29:35;;;;;;;0.10;0.10;;;;;;;11.76;73.74;100300.69;5052998;28;20112;-80
2022/11/04 02:32:41;;;;;;;0.10;0.10;;;;;;;11.76;74.07;100298.03;5061349;28;20021;-80
2022/11/04 02:35:22;;;;;;;0.10;0.10;;;;;;;11.70;73.79;100296.47;5052400;28;20125;-80
2022/11/04 02:38:14;;;;;;;0.00;0.00;;;;;;;11.70;74.29;100295.56;5052539;28;20029;-80
2022/11/04 02:44:20;;;;;;;0.10;0.10;;;;;;;11.64;73.60;100292.22;5055520;28;20407;-80
2022/11/04 02:46:53;;;;;;;0.10;0.10;;;;;;;11.59;74.08;100304.75;5045217;28;20048;-80
2022/11/04 02:52:29;;;;;;;0.10;0.10;;;;;;;11.60;73.58;100311.81;5052383;28;20392;-80
2022/11/04 02:55:02;;;;;;;0.00;0.00;;;;;;;11.59;73.93;100323.34;5039577;28;20052;-80
2022/11/04 02:57:29;;;;;;;;;;;;;;;11.70;74.07;100322.09;5037930;28;20025;-80
2022/11/04 03:00:02;;;;;;;0.10;0.10;;;;;;;11.63;73.61;100322.31;5033575;28;20038;-80
2022/11/04 03:02:36;;;;;;;0.10;0.10;;;;;;;11.62;73.81;100320.56;5034573;28;20036;-80
2022/11/04 03:05:05;;;;;;;0.65;0.65;;;;;;;11.61;74.47;100318.88;5035736;28;20036;-80
2022/11/04 03:07:36;;;;;;;0.10;0.10;;;;;;;11.61;74.05;100316.22;5035943;28;20412;-80
2022/11/04 03:10:12;;;;;;;0.10;0.10;;;;;;;11.61;74.04;100324.16;5036499;28;20065;-80
2022/11/04 03:12:47;;;;;;;0.10;0.10;;;;;;;11.61;73.85;100320.63;5033820;28;20161;-80
2022/11/04 03:15:21;;;;;;;0.10;0.10;;;;;;;11.59;73.64;100314.50;5030912;28;20588;-80
2022/11/04 03:17:59;;;;;;;1.38;0.40;;;;;;;11.57;73.91;100325.16;5032632;28;20025;-80
2022/11/04 03:20:27;;;;;;;0.10;0.10;;;;;;;11.52;73.83;100327.09;5038833;28;20079;-80
2022/11/04 03:22:58;;;;;;;0.47;0.47;;;;;;;11.50;73.78;100326.28;5036218;28;20026;-80
2022/11/04 03:25:31;;;;;;;0.10;0.10;;;;;;;11.48;73.98;100330.78;5033873;28;20018;-80
2022/11/04 03:28:11;;;;;;;;;;;;;;;11.56;73.09;100331.38;5036181;28;20512;-80
2022/11/04 03:30:44;;;;;;;0.10;0.10;;;;;;;11.45;74.10;100338.81;5037167;28;20266;-80
2022/11/04 03:33:21;;;;;;;0.30;0.30;;;;;;;11.44;73.78;100342.38;5036200;28;20051;-80
2022/11/04 03:35:47;;;;;;;0.10;0.10;;;;;;;11.37;74.15;100346.16;5033998;28;20029;-80
2022/11/04 03:38:13;;;;;;;0.10;0.10;;;;;;;11.36;73.46;100350.59;5033694;28;20121;-80
2022/11/04 03:40:40;;;;;;;0.10;0.10;;;;;;;11.33;74.04;100353.34;5034020;28;20022;-80
2022/11/04 03:43:20;;;;;;;0.10;0.10;;;;;;;11.35;74.13;100348.00;5037888;28;20041;-80
2022/11/04 03:45:47;;;;;;;0.20;0.20;;;;;;;11.29;73.74;100352.56;5038082;28;20021;-80
2022/11/04 03:48:13;;;;;;;0.10;0.10;;;;;;;11.25;74.10;100350.94;5033306;28;20308;-80
2022/11/04 03:50:42;;;;;;;0.20;0.20;;;;;;;11.23;74.07;100358.06;5032565;28;20025;-80
2022/11/04 03:53:10;;;;;;;0.75;0.75;;;;;;;11.19;73.46;100358.19;5030623;28;20043;-80
2022/11/04 03:58:52;;;;;;;1.65;0.98;;;;;;;11.13;73.53;100373.38;5078710;27;20406;-80
2022/11/04 04:01:47;;;;;;;0.10;0.10;;;;;;;11.10;73.56;100365.53;5069978;28;20047;-80
2022/11/04 04:04:36;;;;;;;0.10;0.10;;;;;;;11.06;73.94;100371.81;5069822;28;20060;-80
2022/11/04 04:07:11;;;;;;;0.00;0.00;;;;;;;11.02;73.47;100372.84;5069069;28;20117;-80
2022/11/04 04:09:59;;;;;;;0.10;0.10;;;;;;;10.98;73.60;100371.19;5070120;28;20025;-80
2022/11/04 04:12:39;;;;;;;0.10;0.10;;;;;;;10.95;73.53;100372.16;5068431;28;20084;-80
2022/11/04 04:15:13;;;;;;;0.10;0.10;;;;;;;10.90;73.82;100368.75;5070813;28;20045;-80
2022/11/04 04:17:47;;;;;;;0.57;0.57;;;;;;;10.87;73.63;100374.16;5067550;28;20074;-80
2022/11/04 04:20:18;;;;;;;0.30;0.30;;;;;;;10.82;73.22;100381.38;5067656;28;20028;-81
2022/11/04 04:22:51;;;;;;;0.35;0.35;;;;;;;10.78;73.54;100395.59;5068472;28;20021;-80
2022/11/04 04:28:08;;;;;;;0.20;0.20;;;;;;;10.68;73.37;100397.66;5069320;28;20086;-80
2022/11/04 04:30:35;;;;;;;0.10;0.10;;;;;;;10.62;73.29;100401.34;5068752;28;20028;-80
2022/11/04 04:33:13;;;;;;;0.50;0.50;;;;;;;10.62;73.44;100403.13;5065507;28;20939;-80
2022/11/04 04:35:44;;;;;;;0.10;0.10;;;;;;;10.55;73.41;100405.06;5063270;28;20507;-80
2022/11/04 04:46:32;;;;;;;0.22;0.22;;;;;;;10.43;73.59;100410.69;5104557;28;20043;-81
2022/11/04 04:49:13;;;;;;;0.10;0.10;;;;;;;10.48;73.30;100408.78;5093265;28;20035;-81
2022/11/04 04:51:44;;;;;;;0.10;0.10;;;;;;;10.42;73.26;100420.41;5090396;28;20060;-80
2022/11/04 04:54:11;;;;;;;0.10;0.10;;;;;;;10.38;73.27;100412.56;5092163;28;20022;-80
2022/11/04 04:56:37;;;;;;;0.77;0.77;;;;;;;10.34;73.38;100410.00;5091944;28;20219;-80
2022/11/04 04:59:03;;;;;;;0.10;0.10;;;;;;;10.30;73.49;100410.97;5091940;28;20020;-80
2022/11/04 05:01:30;;;;;;;0.10;0.10;;;;;;;10.26;73.48;100414.59;5089886;28;20029;-80
2022/11/04 05:03:56;;;;;;;0.10;0.10;;;;;;;10.26;73.47;100424.34;5094140;28;20127;-81
2022/11/04 05:06:22;;;;;;;0.10;0.10;;;;;;;10.23;73.38;100422.66;5101506;28;20047;-80
2022/11/04 05:08:48;;;;;;;0.03;0.03;;;;;;;10.21;73.31;100432.38;5091274;28;20071;-80
2022/11/04 05:11:14;;;;;;;0.10;0.10;;;;;;;10.19;73.25;100434.19;5093036;28;20032;-80
2022/11/04 05:13:40;;;;;;;0.93;0.90;;;;;;;10.19;73.19;100436.84;5096635;28;20028;-80
2022/11/04 05:16:09;;;;;;;0.32;0.32;;;;;;;10.18;73.21;100437.75;5099112;28;20036;-80
2022/11/04 05:18:36;;;;;;;0.10;0.10;;;;;;;10.17;73.19;100442.19;5099617;28;20036;-80
2022/11/04 05:21:05;;;;;;;0.10;0.10;;;;;;;10.18;73.67;100443.03;5104670;28;20031;-80
2022/11/04 05:23:31;;;;;;;0.10;0.10;;;;;;;10.17;73.44;100441.31;5101068;28;20044;-80
2022/11/04 05:25:58;;;;;;;0.17;0.17;;;;;;;10.17;73.67;100447.47;5101852;28;20036;-79
2022/11/04 05:28:24;;;;;;;0.10;0.10;;;;;;;10.17;73.41;100451.91;5102375;28;20032;-80
2022/11/04 05:30:50;;;;;;;0.10;0.10;;;;;;;10.17;73.55;100451.91;5096265;28;20617;-81
2022/11/04 05:33:16;;;;;;;0.20;0.20;;;;;;;10.18;73.74;100454.53;5094473;28;20012;-80
2022/11/04 05:35:42;;;;;;;0.10;0.10;;;;;;;10.20;73.84;100462.41;5091976;28;20055;-80
2022/11/04 05:38:08;;;;;;;0.10;0.10;;;;;;;10.23;73.80;100465.00;5091417;28;20020;-80
2022/11/04 05:40:35;;;;;;;0.10;0.10;;;;;;;10.25;73.83;100464.97;5090695;28;20051;-80
2022/11/04 05:43:01;;;;;;;0.20;0.20;;;;;;;10.28;73.89;100463.09;5090866;28;20028;-80
2022/11/04 05:45:28;;;;;;;0.10;0.10;;;;;;;10.31;73.92;100460.38;5091520;28;20037;-80
2022/11/04 05:48:00;;;;;;;0.10;0.10;;;;;;;10.37;74.04;100472.63;5091646;28;20399;-80
2022/11/04 05:50:27;;;;;;;0.10;0.10;;;;;;;10.38;73.64;100476.13;5094617;28;20031;-80
2022/11/04 05:52:55;;;;;;;0.10;0.10;;;;;;;10.39;73.95;100481.38;5090885;28;20024;-80
2022/11/04 05:55:21;;;;;;;0.10;0.10;;;;;;;10.41;74.12;100484.88;5077021;28;20048;-80
2022/11/04 05:57:47;;;;;;;0.20;0.20;;;;;;;10.42;74.12;100483.97;5076534;28;20502;-81
2022/11/04 06:00:13;;;;;;;0.20;0.20;;;;;;;10.43;74.22;100484.84;5075160;28;20036;-81
2022/11/04 06:02:39;;;;;;;2.55;0.73;;;;;;;10.43;73.89;100484.84;5081483;28;20399;-80
2022/11/04 06:05:06;;;;;;;0.10;0.10;;;;;;;10.43;74.26;100488.38;5076458;28;20021;-80
2022/11/04 06:07:32;;;;;;;0.10;0.10;;;;;;;10.41;74.42;100492.81;5083729;28;20043;-80
2022/11/04 06:09:59;;;;;;;0.10;0.10;;;;;;;10.44;74.28;100491.88;5079843;28;20028;-81
2022/11/04 06:12:25;;;;;;;0.13;0.13;;;;;;;10.47;74.26;100495.31;5078783;28;20026;-81
2022/11/04 06:14:51;;;;;;;0.10;0.10;;;;;;;10.49;74.22;100497.91;5075714;28;20060;-80
2022/11/04 06:17:20;;;;;;;0.10;0.10;;;;;;;10.53;74.27;100499.59;5079145;28;20219;-80
2022/11/04 06:19:46;;;;;;;0.17;0.17;;;;;;;10.54;74.51;100505.75;5077238;28;20115;-80
2022/11/04 06:22:15;;;;;;;0.10;0.10;;;;;;;10.56;74.30;100498.66;5073630;28;20029;-80
2022/11/04 06:24:42;;;;;;;0.08;0.08;;;;;;;10.58;74.31;100500.34;5077124;28;20048;-80
2022/11/04 06:27:08;;;;;;;0.10;0.10;;;;;;;10.60;74.39;100495.88;5077069;28;20024;-80
2022/11/04 06:29:38;;;;;;;0.20;0.20;;;;;;;10.60;74.47;100501.16;5074316;28;20119;-80
2022/11/04 06:32:06;;;;;;;0.30;0.30;;;;;;;10.61;74.59;100505.56;5076245;28;20036;-79
2022/11/04 06:34:32;;;;;;;0.10;0.10;;;;;;;10.62;74.54;100511.75;5080133;28;20016;-80
2022/11/04 06:36:58;;;;;;;0.10;0.10;;;;;;;10.61;74.33;100505.56;5082318;28;20040;-80
2022/11/04 06:39:24;;;;;;;0.10;0.10;;;;;;;10.58;74.48;100505.66;5075332;28;20048;-80
2022/11/04 06:41:50;;;;;;;0.10;0.10;;;;;;;10.57;74.49;100503.06;5076057;28;20088;-80
2022/11/04 06:44:16;;;;;;;0.10;0.10;;;;;;;10.52;74.36;100508.47;5068923;28;20389;-80
2022/11/04 06:46:43;;;;;;;0.10;0.10;;;;;;;10.49;74.40;100516.47;5067816;28;20111;-80
2022/11/04 06:49:12;;;;;;;0.10;0.10;;;;;;;10.47;74.15;100515.66;5075178;28;20039;-81
2022/11/04 06:51:39;;;;;;;0.10;0.10;;;;;;;10.44;74.58;100511.31;5073444;28;20028;-80
2022/11/04 06:54:05;;;;;;;0.20;0.20;;;;;;;10.41;74.44;100529.91;5080262;28;20039;-81
2022/11/04 06:56:31;;;;;;;0.10;0.10;;;;;;;10.40;74.44;100527.31;5073012;28;20032;-81
2022/11/04 06:58:57;;;;;;;0.30;0.30;;;;;;;10.35;74.24;100528.25;5074426;28;20633;-80
2022/11/04 07:01:26;;;;;;;0.20;0.20;;;;;;;10.34;74.57;100528.28;5071278;28;20033;-80
2022/11/04 07:03:55;;;;;;;0.10;0.10;;;;;;;10.33;74.36;100539.75;5072110;28;20530;-80
2022/11/04 07:06:22;;;;;;;0.10;0.10;;;;;;;10.30;74.60;100532.78;5077829;28;20032;-80
2022/11/04 07:08:49;;;;;;;0.10;0.10;;;;;;;10.29;74.35;100525.75;5074851;28;20036;-80
2022/11/04 07:11:18;;;;;;;0.10;0.10;;;;;;;10.29;74.29;100530.16;5080493;28;20043;-80
2022/11/04 07:13:44;;;;;;;0.10;0.10;;;;;;;10.26;74.33;100536.41;5075208;28;20082;-80
2022/11/04 07:16:11;;;;;;;0.10;0.10;;;;;;;10.25;74.44;100534.66;5068169;28;20572;-81
2022/11/04 07:18:37;;;;;;;0.10;0.10;;;;;;;10.24;74.28;100532.91;5076484;28;20036;-81
2022/11/04 07:21:04;;;;;;;1.75;0.68;;;;;;;10.24;74.09;100547.94;5080860;28;20020;-80
2022/11/04 07:23:30;;;;;;;0.10;0.10;;;;;;;10.22;74.22;100555.94;5079308;28;20032;-81
2022/11/04 07:26:00;;;;;;;2.72;2.38;;;;;;;10.24;74.13;100559.38;5085369;28;20517;-80
2022/11/04 07:28:27;;;;;;;0.10;0.10;;;;;;;10.23;74.07;100567.38;5076623;28;20027;-79
2022/11/04 07:30:56;;;;;;;0.10;0.10;;;;;;;10.25;74.22;100571.72;5078983;28;20503;-80
2022/11/04 07:33:23;;;;;;;0.15;0.15;;;;;;;10.24;74.14;100580.56;5078910;28;20107;-80
2022/11/04 07:35:49;;;;;;;0.30;0.30;;;;;;;10.26;73.98;100578.78;5084213;28;20488;-80
2022/11/04 07:38:15;;;;;;;0.00;0.00;;;;;;;10.28;74.11;100587.56;5086105;28;20032;-81
2022/11/04 07:40:41;;;;;;;0.00;0.00;;;;;;;10.31;74.27;100576.88;5081040;28;20047;-80
2022/11/04 07:43:07;;;;;;;0.10;0.10;;;;;;;10.33;74.29;100583.03;5081070;28;20020;-80
2022/11/04 07:45:33;;;;;;;0.10;0.10;;;;;;;10.35;74.28;100589.16;5076290;28;20081;-80
2022/11/04 07:47:59;;;;;;;0.10;0.10;;;;;;;10.39;74.11;100592.63;5075988;28;20052;-80
2022/11/04 07:50:26;;;;;;;0.20;0.20;;;;;;;10.44;74.28;100593.41;5075334;28;20048;-80
2022/11/04 07:52:52;;;;;;;0.10;0.10;;;;;;;10.48;74.38;100596.84;5084834;28;20030;-80
2022/11/04 07:55:18;;;;;;;0.10;0.10;;;;;;;10.51;74.36;100599.44;5089812;28;20383;-80
2022/11/04 07:57:45;;;;;;;0.22;0.22;;;;;;;10.57;74.37;100604.56;5089915;28;20051;-80
2022/11/04 08:00:14;;;;;;;0.10;0.10;;;;;;;10.59;74.62;100597.47;5086259;28;20088;-80
2022/11/04 08:02:41;;;;;;;0.10;0.10;;;;;;;10.65;74.28;100599.97;5091527;28;20028;-80
2022/11/04 08:05:08;;;;;;;0.20;0.20;;;;;;;10.73;74.87;100606.84;5090592;28;20051;-80
2022/11/04 08:07:34;;;;;;;0.10;0.10;;;;;;;10.78;74.77;100603.19;5089486;28;20028;-80
2022/11/04 08:10:00;;;;;;;0.10;0.10;;;;;;;10.84;74.75;100607.44;5090433;28;20070;-80
2022/11/04 08:12:26;;;;;;;0.10;0.10;;;;;;;10.88;74.95;100619.75;5087881;28;20032;-80
2022/11/04 08:14:52;;;;;;;0.10;0.10;;;;;;;10.95;74.62;100609.84;5086160;28;20028;-79
2022/11/04 08:17:19;;;;;;;0.17;0.17;;;;;;;10.99;74.98;100607.06;5089362;28;20033;-79
2022/11/04 08:19:45;;;;;;;0.13;0.13;;;;;;;11.05;74.42;100621.94;5086281;28;20020;-80
2022/11/04 08:22:11;;;;;;;0.10;0.10;;;;;;;11.10;74.65;100624.47;5087329;28;20029;-80
2022/11/04 08:24:37;;;;;;;0.20;0.20;;;;;;;11.14;74.42;100636.75;5083254;28;20067;-80
2022/11/04 08:27:06;;;;;;;0.10;0.10;;;;;;;11.17;74.79;100636.69;5082788;28;20035;-80
2022/11/04 08:29:33;;;;;;;1.38;1.27;;;;;;;11.25;74.75;100650.63;5074472;28;20128;-80
2022/11/04 08:31:59;;;;;;;0.10;0.10;;;;;;;11.28;74.86;100645.22;5091607;28;20103;-80
2022/11/04 08:34:25;;;;;;;0.10;0.10;;;;;;;11.33;75.10;100647.75;5087952;28;20395;-80
2022/11/04 08:36:52;;;;;;;0.38;0.38;;;;;;;11.37;74.69;100643.25;5087287;28;20415;-80
2022/11/04 08:39:18;;;;;;;0.10;0.10;;;;;;;11.41;75.23;100651.06;5086618;28;20036;-80
2022/11/04 08:41:45;;;;;;;0.10;0.10;;;;;;;11.46;75.33;100649.19;5084612;28;20033;-80
2022/11/04 08:44:13;;;;;;;0.10;0.10;;;;;;;11.51;75.08;100646.38;5087195;28;20055;-80
2022/11/04 08:46:41;;;;;;;0.20;0.20;;;;;;;11.53;74.88;100649.88;5084674;28;20093;-80
2022/11/04 08:49:07;;;;;;;0.10;0.10;;;;;;;11.57;74.45;100656.84;5084113;28;20039;-80
2022/11/04 08:51:36;;;;;;;0.10;0.10;;;;;;;11.57;74.58;100656.84;5078802;28;20412;-80
2022/11/04 08:54:04;;;;;;;0.10;0.10;;;;;;;11.59;74.93;100654.13;5089158;28;20020;-80
2022/11/04 08:56:33;;;;;;;0.10;0.10;;;;;;;11.61;74.92;100655.88;5081827;28;20081;-78
2022/11/04 08:59:01;;;;;;;0.05;0.05;;;;;;;11.64;74.85;100658.41;5079214;28;20020;-80
2022/11/04 09:01:30;;;;;;;0.10;0.10;;;;;;;11.74;75.13;100660.81;5073997;28;20396;-80
2022/11/04 09:03:56;;;;;;;0.10;0.10;;;;;;;11.75;75.24;100662.53;5073207;28;20028;-80
2022/11/04 09:06:28;;;;;;;0.10;0.10;;;;;;;11.84;74.44;100664.06;5074120;28;20025;-80
2022/11/04 09:09:02;;;;;;;0.40;0.40;;;;;;;11.84;74.97;100667.63;5071632;28;20048;-80
2022/11/04 09:11:30;;;;;;;0.10;0.10;;;;;;;11.87;74.27;100669.31;5072842;28;20029;-81
2022/11/04 09:13:59;;;;;;;0.20;0.20;;;;;;;11.89;74.56;100681.63;5075371;28;20365;-81
2022/11/04 09:16:27;;;;;;;0.20;0.20;;;;;;;11.92;74.29;100678.00;5075623;28;20492;-81
2022/11/04 09:18:54;;;;;;;0.40;0.40;;;;;;;11.97;74.55;100681.44;5073855;28;20024;-80
2022/11/04 09:21:20;;;;;;;0.17;0.17;;;;;;;12.04;75.02;100687.47;5072667;28;20027;-82
2022/11/04 09:23:47;;;;;;;0.40;0.40;;;;;;;12.11;74.69;100683.69;5072819;28;20411;-81
2022/11/04 09:26:15;;;;;;;0.10;0.10;;;;;;;12.21;74.67;100690.50;5074883;28;20036;-81
2022/11/04 09:28:41;;;;;;;0.10;0.10;;;;;;;12.27;74.95;100685.00;5074841;28;20028;-81
2022/11/04 09:31:11;;;;;;;0.03;0.03;;;;;;;12.35;74.52;100689.19;5075787;28;20484;-81
2022/11/04 09:33:37;;;;;;;1.38;0.98;;;;;;;12.41;74.96;100692.56;5081135;28;20587;-81
2022/11/04 09:36:04;;;;;;;0.10;0.10;;;;;;;12.49;74.82;100692.31;5084996;28;20032;-81
2022/11/04 09:38:30;;;;;;;0.50;0.50;;;;;;;12.54;74.63;100709.00;5084170;28;20020;-81
2022/11/04 09:40:59;;;;;;;0.10;0.10;;;;;;;12.57;74.48;100703.59;5086403;28;20036;-81
2022/11/04 09:43:44;;;;;;;0.20;0.20;;;;;;;12.68;74.57;100710.38;5088509;28;20614;-81
2022/11/04 09:46:12;;;;;;;0.65;0.65;;;;;;;12.72;74.16;100712.00;5079695;28;20040;-81
2022/11/04 09:48:43;;;;;;;0.10;0.10;;;;;;;12.82;74.73;100724.06;5092295;28;20047;-81
2022/11/04 09:51:10;;;;;;;0.13;0.13;;;;;;;12.90;74.24;100724.72;5092731;28;20028;-81
2022/11/04 09:53:43;;;;;;;0.40;0.40;;;;;;;13.05;74.16;100733.16;5085375;28;20033;-81
2022/11/04 09:56:21;;;;;;;0.08;0.08;;;;;;;13.14;73.75;100735.50;5080835;28;20027;-82
2022/11/04 09:58:48;;;;;;;0.52;0.52;;;;;;;13.18;73.73;100742.44;5077353;28;20032;-81
2022/11/04 10:06:52;;;;;;;0.10;0.10;;;;;;;13.48;74.77;100750.38;5081549;27;1200029;-80
2022/11/04 10:09:45;;;;;;;0.10;0.10;;;;;;;13.78;73.93;100754.69;5098634;28;20059;-81
2022/11/04 10:12:39;;;;;;;0.10;0.10;;;;;;;13.82;73.35;100753.66;5099272;28;20028;-81
2022/11/04 10:15:34;;;;;;;0.10;0.10;;;;;;;13.90;73.68;100760.47;5102044;28;20031;-81
2022/11/04 10:28:45;;;;;;;0.10;0.10;;;;;;;13.78;72.34;100774.19;5103398;27;1174574;-80
2022/11/04 10:31:17;;;;;;;0.10;0.10;;;;;;;13.80;72.15;100777.69;5129600;27;20038;-81
2022/11/04 10:33:49;;;;;;;0.25;0.25;;;;;;;13.80;71.57;100783.00;5114091;28;20064;-81
2022/11/04 10:36:16;;;;;;;3.97;1.05;;;;;;;13.80;70.50;100792.81;5114025;27;20399;-80
2022/11/04 10:38:49;;;;;;;0.10;0.10;;;;;;;13.83;71.24;100798.91;5111540;28;20449;-81
2022/11/04 10:50:00;;;;;;;0.88;0.65;;;;;;;13.95;70.12;100804.72;5031463;28;20404;-80
2022/11/04 10:52:26;;;;;;;0.40;0.40;;;;;;;13.91;70.30;100810.16;5030028;28;20029;-81
2022/11/04 10:54:52;;;;;;;0.10;0.10;;;;;;;13.98;71.67;100812.59;5030513;28;20033;-81
2022/11/04 10:57:23;;;;;;;0.47;0.47;;;;;;;14.09;72.02;100807.75;5030043;28;20025;-81
2022/11/04 11:00:05;;;;;;;0.10;0.10;;;;;;;14.23;71.63;100810.81;5027274;28;20028;-81
2022/11/04 11:02:47;;;;;;;0.10;0.10;;;;;;;14.31;71.46;100818.53;5033533;28;20112;-81
2022/11/04 11:05:22;;;;;;;0.20;0.20;;;;;;;14.32;70.48;100817.63;5025414;28;20036;-80
2022/11/04 11:07:52;;;;;;;0.10;0.10;;;;;;;14.34;70.16;100817.56;5027630;28;20072;-81
2022/11/04 11:13:03;;;;;;;0.10;0.10;;;;;;;14.51;71.06;100809.81;5095964;27;21090;-81
2022/11/04 11:15:34;;;;;;;0.10;0.10;;;;;;;14.63;70.76;100820.94;5086099;28;20077;-82
2022/11/04 11:20:39;;;;;;;0.10;0.10;;;;;;;14.95;69.72;100816.22;5097134;27;20136;-80
2022/11/04 11:23:34;;;;;;;0.20;0.20;;;;;;;15.17;69.94;100817.09;5101388;28;20020;-80
2022/11/04 11:26:02;;;;;;;0.00;0.00;;;;;;;15.29;70.54;100836.22;5099335;28;20036;-81
2022/11/04 11:28:29;;;;;;;1.38;0.52;;;;;;;15.33;67.13;100843.22;5100749;28;20098;-82
2022/11/04 11:30:59;;;;;;;0.10;0.10;;;;;;;15.39;68.07;100853.63;5095364;28;20024;-81
2022/11/04 11:33:31;;;;;;;0.20;0.20;;;;;;;15.33;66.67;100856.56;5104518;28;20023;-81
2022/11/04 11:39:15;;;;;;;1.20;1.20;;;;;;;15.29;68.52;100865.59;5049227;28;20391;-81
2022/11/04 11:47:17;;;;;;;6.40;0.90;;;;;;;14.75;68.18;100889.84;5099757;27;20352;-80
2022/11/04 11:49:44;;;;;;;0.57;0.57;;;;;;;14.50;68.45;100896.03;5083497;28;20021;-78
2022/11/04 11:52:32;;;;;;;0.38;0.38;;;;;;;14.32;68.43;100902.03;5086006;28;20036;-80
2022/11/04 11:55:18;;;;;;;0.10;0.10;;;;;;;14.18;69.19;100899.81;5087561;28;20043;-79
2022/11/04 12:00:31;;;;;;;0.00;0.00;;;;;;;13.95;69.65;100887.31;5072456;27;20416;-80
2022/11/04 12:06:02;;;;;;;0.10;0.10;;;;;;;13.85;70.28;100876.94;5095594;27;20386;-79
2022/11/04 12:08:59;;;;;;;0.10;0.10;;;;;;;13.85;70.61;100884.94;5100175;28;20016;-78
2022/11/04 12:11:35;;;;;;;0.10;0.10;;;;;;;13.81;70.75;100883.28;5106356;28;20028;-80
2022/11/04 12:14:21;;;;;;;0.10;0.10;;;;;;;13.85;70.66;100887.59;5097689;28;20471;-80
2022/11/04 12:17:05;;;;;;;0.10;0.10;;;;;;;13.93;71.53;100897.13;5092276;28;20028;-79
2022/11/04 12:19:57;;;;;;;0.10;0.10;;;;;;;14.01;71.52;100905.75;5092014;28;20429;-79
2022/11/04 12:23:03;;;;;;;0.20;0.20;;;;;;;14.17;71.97;100914.97;5090322;28;20029;-79
2022/11/04 12:32:05;;;;;;;0.20;0.20;;;;;;;14.66;70.20;100916.88;5115746;27;20372;-79
2022/11/04 12:48:05;;;;;;;0.10;0.10;;;;;;;14.54;67.40;100935.03;5087449;27;20137;-79
2022/11/04 12:51:04;;;;;;;0.10;0.10;;;;;;;14.57;67.80;100934.91;5087497;28;20040;-80
2022/11/04 12:53:52;;;;;;;0.10;0.10;;;;;;;14.52;66.83;100941.34;5076341;28;20031;-79
2022/11/04 12:56:20;;;;;;;0.10;0.10;;;;;;;14.43;65.42;100947.84;5087427;28;20025;-79
2022/11/04 13:01:47;;;;;;;0.10;0.10;;;;;;;14.28;65.39;100959.03;5086121;27;20421;-80
2022/11/04 13:07:03;;;;;;;0.10;0.10;;;;;;;13.92;63.11;100962.84;5093249;27;20405;-78
2022/11/04 13:09:53;;;;;;;0.03;0.03;;;;;;;13.78;64.67;100965.94;5086198;28;20036;-79
2022/11/04 13:15:22;;;;;;;1.45;0.65;;;;;;;13.45;63.46;100965.22;5082792;27;20445;-79
2022/11/04 13:17:57;;;;;;;0.10;0.10;;;;;;;13.48;64.78;100967.75;5083083;28;20046;-79
2022/11/04 13:23:07;;;;;;;0.00;0.00;;;;;;;13.54;66.91;100973.75;5109083;27;20133;-79
2022/11/04 13:25:40;;;;;;;0.10;0.10;;;;;;;13.62;66.19;100975.31;5108792;28;20038;-80
2022/11/04 13:28:12;;;;;;;0.10;0.10;;;;;;;13.67;66.00;100968.97;5108132;28;20027;-79
2022/11/04 13:34:00;;;;;;;0.05;0.05;;;;;;;13.93;66.16;100974.38;5109317;27;20384;-79
2022/11/04 13:36:49;;;;;;;0.10;0.10;;;;;;;14.04;66.93;100982.88;5091532;28;20036;-79
2022/11/04 13:39:25;;;;;;;0.00;0.00;;;;;;;14.11;66.30;100991.56;5113996;27;20031;-78
2022/11/04 13:44:47;;;;;;;0.10;0.10;;;;;;;14.39;67.01;101012.84;5099332;27;20408;-78
2022/11/04 13:47:23;;;;;;;0.10;0.10;;;;;;;14.45;65.30;101007.31;5095048;28;20040;-82
2022/11/04 13:49:54;;;;;;;0.10;0.10;;;;;;;14.41;63.55;101016.34;5081756;28;20059;-81